Terminal Aerodrome Forecast
Issued by NWS Nashville, TN

Home | Current Version | Previous Version | Text Only | Print | Product List | Glossary On
Versions: 1 2 3 4 5 6 7 8 9 10 11 12 13 14 15 16 17 18 19 20
000
FTUS44 KOHX 212000 AAC
TAFCSV
TAF AMD
KCSV 212015Z 2120/2218 27008G14KT P6SM VCTS SCT020 BKN045CB
      TEMPO 2121/2122 4SM TSRA BR BKN020CB BKN045
     FM212300 29010G20KT P6SM BKN060
     FM220100 33003KT P6SM SKC
     FM221400 01011KT P6SM FEW040=

USA.gov is the U.S. government's official web portal to all federal, state and local government web resources and services.